createdAt,value
2023-09-23T00:02:25.049Z,11.15
2023-09-23T00:04:51.763Z,11.10
2023-09-23T00:07:19.476Z,11.07
2023-09-23T00:09:46.261Z,11.15
2023-09-23T00:12:13.377Z,11.10
2023-09-23T00:14:39.794Z,11.02
2023-09-23T00:17:08.663Z,10.83
2023-09-23T00:19:36.004Z,10.74
2023-09-23T00:22:03.418Z,10.66
2023-09-23T00:24:31.841Z,10.54
2023-09-23T00:27:00.766Z,10.32
2023-09-23T00:29:28.674Z,10.21
2023-09-23T00:31:56.352Z,10.23
2023-09-23T00:34:24.425Z,10.21
2023-09-23T00:36:52.145Z,10.29
2023-09-23T00:39:19.151Z,10.30
2023-09-23T00:41:45.593Z,10.24
2023-09-23T00:44:12.067Z,10.17
2023-09-23T00:46:39.542Z,10.11
2023-09-23T00:49:09.592Z,10.14
2023-09-23T00:51:38.515Z,10.15
2023-09-23T00:54:09.180Z,10.14
2023-09-23T00:56:37.290Z,10.25
2023-09-23T00:59:07.948Z,10.30
2023-09-23T01:01:35.982Z,10.26
2023-09-23T01:04:02.650Z,10.31
2023-09-23T01:06:29.680Z,10.24
2023-09-23T01:08:59.079Z,10.34
2023-09-23T01:11:27.368Z,10.29
2023-09-23T01:13:53.816Z,10.22
2023-09-23T01:16:23.000Z,10.09
2023-09-23T01:18:51.000Z,10.11
2023-09-23T01:21:17.583Z,10.12
2023-09-23T01:23:45.898Z,10.09
2023-09-23T01:26:15.546Z,10.02
2023-09-23T01:28:42.271Z,10.07
2023-09-23T01:31:10.419Z,10.10
2023-09-23T01:33:38.066Z,10.14
2023-09-23T01:36:04.778Z,10.04
2023-09-23T01:38:32.755Z,9.96
2023-09-23T01:41:00.856Z,10.10
2023-09-23T01:43:28.030Z,10.11
2023-09-23T01:46:00.248Z,10.04
2023-09-23T01:48:28.155Z,10.07
2023-09-23T01:50:54.600Z,10.11
2023-09-23T01:53:24.729Z,10.12
2023-09-23T01:55:51.133Z,10.09
2023-09-23T01:58:17.546Z,10.05
2023-09-23T02:00:44.058Z,9.99
2023-09-23T02:03:11.693Z,10.02
2023-09-23T02:05:38.272Z,9.98
2023-09-23T02:08:05.418Z,9.86
2023-09-23T02:10:31.818Z,9.78
2023-09-23T02:12:59.034Z,9.74
2023-09-23T02:15:26.228Z,9.72
2023-09-23T02:17:54.226Z,9.73
2023-09-23T02:20:21.322Z,9.85
2023-09-23T02:22:55.429Z,9.90
2023-09-23T02:25:26.505Z,9.88
2023-09-23T02:27:54.060Z,9.80
2023-09-23T02:30:21.077Z,9.83
2023-09-23T02:32:48.611Z,9.80
2023-09-23T02:35:16.755Z,9.71
2023-09-23T02:37:49.898Z,9.76
2023-09-23T02:40:17.217Z,9.70
2023-09-23T02:42:48.534Z,9.68
2023-09-23T02:45:17.754Z,9.66
2023-09-23T02:47:45.170Z,9.73
2023-09-23T02:50:13.967Z,9.79
2023-09-23T02:52:47.008Z,9.63
2023-09-23T02:55:16.754Z,9.57
2023-09-23T02:57:50.277Z,9.51
2023-09-23T03:00:18.081Z,9.50
2023-09-23T03:02:54.368Z,9.50
2023-09-23T03:05:27.091Z,9.48
2023-09-23T03:08:00.784Z,9.54
2023-09-23T03:10:33.690Z,9.54
2023-09-23T03:13:08.125Z,9.59
2023-09-23T03:15:45.827Z,9.57
2023-09-23T03:18:17.226Z,9.45
2023-09-23T03:20:43.887Z,9.38
2023-09-23T03:23:11.667Z,9.45
2023-09-23T03:25:49.299Z,9.47
2023-09-23T03:28:18.882Z,9.40
2023-09-23T03:30:49.148Z,9.29
2023-09-23T03:33:20.044Z,9.20
2023-09-23T03:35:47.429Z,9.24
2023-09-23T03:38:14.255Z,9.28
2023-09-23T03:40:41.173Z,9.27
2023-09-23T03:43:07.736Z,9.25
2023-09-23T03:45:35.642Z,9.14
2023-09-23T03:48:02.537Z,9.05
2023-09-23T03:50:31.087Z,8.99
2023-09-23T03:52:57.546Z,8.94
2023-09-23T03:55:26.085Z,8.90
2023-09-23T03:57:55.038Z,8.89
2023-09-23T04:00:22.892Z,8.93
2023-09-23T04:02:49.858Z,8.84
2023-09-23T04:05:16.984Z,8.70
2023-09-23T04:07:51.776Z,8.65
2023-09-23T04:10:20.941Z,8.57
2023-09-23T04:12:47.648Z,8.60
2023-09-23T04:15:14.502Z,8.62
2023-09-23T04:17:41.036Z,8.62
2023-09-23T04:20:12.015Z,8.66
2023-09-23T04:22:39.490Z,8.62
2023-09-23T04:25:06.985Z,8.63
2023-09-23T04:27:40.563Z,8.63
2023-09-23T04:30:10.468Z,8.58
2023-09-23T04:32:37.816Z,8.62
2023-09-23T04:35:05.410Z,8.70
2023-09-23T04:37:34.809Z,8.72
2023-09-23T04:40:01.187Z,8.76
2023-09-23T04:42:28.074Z,8.81
2023-09-23T04:44:54.450Z,8.84
2023-09-23T04:47:21.048Z,8.81
2023-09-23T04:49:47.994Z,8.76
2023-09-23T04:52:16.588Z,8.87
2023-09-23T04:54:43.692Z,8.91
2023-09-23T04:57:10.892Z,8.98
2023-09-23T04:59:37.314Z,9.01
2023-09-23T05:02:04.714Z,9.05
2023-09-23T05:04:32.091Z,9.10
2023-09-23T05:06:58.729Z,9.12
2023-09-23T05:09:26.814Z,9.09
2023-09-23T05:11:54.543Z,9.18
2023-09-23T05:14:21.735Z,9.34
2023-09-23T05:16:49.181Z,9.27
2023-09-23T05:19:16.289Z,9.08
2023-09-23T05:21:43.552Z,8.99
2023-09-23T05:24:11.294Z,8.97
2023-09-23T05:26:38.185Z,8.92
2023-09-23T05:29:04.755Z,8.73
2023-09-23T05:31:31.176Z,8.74
2023-09-23T05:33:57.581Z,8.82
2023-09-23T05:36:23.985Z,8.77
2023-09-23T05:38:50.341Z,8.79
2023-09-23T05:41:17.196Z,8.93
2023-09-23T05:43:43.596Z,8.92
2023-09-23T05:46:12.456Z,9.05
2023-09-23T05:48:39.236Z,8.96
2023-09-23T05:51:06.718Z,8.95
2023-09-23T05:53:34.251Z,9.04
2023-09-23T05:56:01.906Z,9.14
2023-09-23T05:58:28.381Z,9.37
2023-09-23T06:00:55.050Z,9.56
2023-09-23T06:03:22.044Z,9.73
2023-09-23T06:05:48.530Z,9.88
2023-09-23T06:08:15.034Z,9.99
2023-09-23T06:10:42.448Z,9.86
2023-09-23T06:13:11.727Z,9.66
2023-09-23T06:15:38.126Z,9.84
2023-09-23T06:18:05.243Z,9.82
2023-09-23T06:20:31.689Z,10.00
2023-09-23T06:22:58.990Z,10.25
2023-09-23T06:25:25.857Z,10.54
2023-09-23T06:27:52.252Z,10.75
2023-09-23T06:30:19.144Z,10.78
2023-09-23T06:32:46.590Z,10.90
2023-09-23T06:35:13.051Z,11.74
2023-09-23T06:37:39.463Z,11.66
2023-09-23T06:40:07.087Z,11.33
2023-09-23T06:42:33.479Z,11.77
2023-09-23T06:45:00.190Z,12.05
2023-09-23T06:47:27.199Z,11.77
2023-09-23T06:49:53.849Z,11.77
2023-09-23T06:52:20.267Z,11.73
2023-09-23T06:54:47.029Z,11.51
2023-09-23T06:57:14.216Z,11.31
2023-09-23T06:59:42.144Z,11.57
2023-09-23T07:02:09.035Z,11.70
2023-09-23T07:04:37.183Z,11.77
2023-09-23T07:07:03.555Z,11.40
2023-09-23T07:09:30.303Z,11.80
2023-09-23T07:11:56.777Z,12.06
2023-09-23T07:14:23.233Z,12.49
2023-09-23T07:16:50.182Z,12.31
2023-09-23T07:19:16.590Z,12.61
2023-09-23T07:21:43.093Z,12.68
2023-09-23T07:24:11.179Z,12.44
2023-09-23T07:26:40.094Z,12.33
2023-09-23T07:29:06.479Z,12.43
2023-09-23T07:31:33.275Z,11.77
2023-09-23T07:33:59.791Z,12.07
2023-09-23T07:36:26.190Z,11.84
2023-09-23T07:38:52.953Z,11.65
2023-09-23T07:41:19.330Z,12.09
2023-09-23T07:43:46.074Z,11.78
2023-09-23T07:46:13.112Z,11.50
2023-09-23T07:48:39.485Z,11.56
2023-09-23T07:51:05.860Z,11.59
2023-09-23T07:53:32.747Z,11.85
2023-09-23T07:55:59.138Z,12.29
2023-09-23T07:58:25.729Z,12.41
2023-09-23T08:00:53.830Z,12.63
2023-09-23T08:03:20.247Z,12.86
2023-09-23T08:05:46.666Z,12.97
2023-09-23T08:08:13.646Z,13.15
2023-09-23T08:10:40.670Z,12.95
2023-09-23T08:13:07.079Z,13.61
2023-09-23T08:15:33.820Z,13.32
2023-09-23T08:18:00.299Z,13.28
2023-09-23T08:20:27.769Z,14.34
2023-09-23T08:22:57.675Z,13.88
2023-09-23T08:25:25.927Z,13.08
2023-09-23T08:27:52.438Z,13.97
2023-09-23T08:30:19.223Z,14.04
2023-09-23T08:32:46.758Z,14.70
2023-09-23T08:35:13.197Z,14.27
2023-09-23T08:37:40.215Z,15.11
2023-09-23T08:40:12.089Z,14.37
2023-09-23T08:42:39.841Z,14.83
2023-09-23T08:45:09.744Z,15.63
2023-09-23T08:47:38.454Z,16.47
2023-09-23T08:50:12.190Z,16.58
2023-09-23T08:52:38.981Z,16.95
2023-09-23T08:55:08.361Z,16.50
2023-09-23T08:57:35.232Z,14.91
2023-09-23T09:00:01.807Z,14.34
2023-09-23T09:02:30.344Z,15.61
2023-09-23T09:04:58.901Z,15.50
2023-09-23T09:07:33.126Z,16.50
2023-09-23T09:10:00.214Z,16.22
2023-09-23T09:12:27.750Z,17.00
2023-09-23T09:14:54.324Z,17.84
2023-09-23T09:17:21.003Z,16.35
2023-09-23T09:19:50.624Z,16.09
2023-09-23T09:22:20.764Z,18.19
2023-09-23T09:24:50.388Z,17.31
2023-09-23T09:27:17.076Z,16.42
2023-09-23T09:29:44.965Z,15.87
2023-09-23T09:32:12.192Z,17.16
2023-09-23T09:34:49.414Z,17.57
2023-09-23T09:37:16.166Z,17.93
2023-09-23T09:39:56.577Z,16.40
2023-09-23T09:42:34.366Z,15.43
2023-09-23T09:45:01.194Z,17.35
2023-09-23T09:47:29.186Z,17.49
2023-09-23T09:49:56.188Z,17.11
2023-09-23T09:52:25.100Z,15.92
2023-09-23T09:54:55.894Z,16.02
2023-09-23T09:57:28.426Z,14.92
2023-09-23T10:00:00.826Z,15.06
2023-09-23T10:02:28.135Z,14.52
2023-09-23T10:04:55.414Z,14.70
2023-09-23T10:07:24.777Z,15.34
2023-09-23T10:09:55.293Z,15.70
2023-09-23T10:12:32.844Z,16.21
2023-09-23T10:15:01.885Z,18.88
2023-09-23T10:17:36.906Z,20.28
2023-09-23T10:20:11.510Z,20.99
2023-09-23T10:22:38.300Z,21.57
2023-09-23T10:25:07.976Z,18.99
2023-09-23T10:27:37.789Z,18.34
2023-09-23T10:30:05.977Z,16.58
2023-09-23T10:32:32.761Z,17.23
2023-09-23T10:35:00.133Z,16.58
2023-09-23T10:37:32.110Z,15.58
2023-09-23T10:40:15.538Z,15.47
2023-09-23T10:42:43.190Z,16.17
2023-09-23T10:45:10.912Z,15.56
2023-09-23T10:47:37.941Z,15.31
2023-09-23T10:50:14.068Z,15.44
2023-09-23T10:52:41.094Z,16.02
2023-09-23T10:55:10.262Z,16.53
2023-09-23T10:57:37.528Z,16.45
2023-09-23T11:00:17.280Z,16.08
2023-09-23T11:02:46.034Z,16.67
2023-09-23T11:05:12.827Z,17.51
2023-09-23T11:07:43.276Z,16.61
2023-09-23T11:10:13.199Z,15.63
2023-09-23T11:12:44.961Z,15.36
2023-09-23T11:15:14.283Z,17.16
2023-09-23T11:17:42.881Z,19.13
2023-09-23T11:20:11.310Z,20.41
2023-09-23T11:22:44.847Z,19.62
2023-09-23T11:25:12.932Z,19.42
2023-09-23T11:27:40.987Z,19.96
2023-09-23T11:30:08.365Z,20.78
2023-09-23T11:32:34.984Z,21.75
2023-09-23T11:35:01.890Z,20.55
2023-09-23T11:37:28.675Z,21.65
2023-09-23T11:39:55.074Z,21.27
2023-09-23T11:42:21.904Z,18.81
2023-09-23T11:44:48.399Z,18.67
2023-09-23T11:47:15.021Z,17.58
2023-09-23T11:49:41.451Z,17.18
2023-09-23T11:52:14.075Z,16.61
2023-09-23T11:54:42.201Z,16.71
2023-09-23T11:57:09.509Z,16.19
2023-09-23T11:59:36.830Z,17.20
2023-09-23T12:02:03.813Z,17.97
2023-09-23T12:04:30.893Z,18.39
2023-09-23T12:06:57.406Z,17.06
2023-09-23T12:09:25.108Z,18.27
2023-09-23T12:11:52.173Z,18.99
2023-09-23T12:14:20.707Z,19.38
2023-09-23T12:16:47.310Z,18.07
2023-09-23T12:19:13.675Z,18.76
2023-09-23T12:21:40.225Z,19.66
2023-09-23T12:24:08.436Z,19.50
2023-09-23T12:26:36.458Z,18.87
2023-09-23T12:29:03.940Z,16.91
2023-09-23T12:31:30.390Z,17.14
2023-09-23T12:33:56.817Z,18.27
2023-09-23T12:36:23.654Z,17.24
2023-09-23T12:38:50.005Z,17.43
2023-09-23T12:41:17.284Z,17.54
2023-09-23T12:43:44.111Z,17.08
2023-09-23T12:46:10.577Z,16.93
2023-09-23T12:48:37.075Z,17.11
2023-09-23T12:51:03.929Z,16.85
2023-09-23T12:53:31.084Z,17.64
2023-09-23T12:55:57.517Z,18.61
2023-09-23T12:58:24.376Z,19.01
2023-09-23T13:00:50.770Z,18.77
2023-09-23T13:03:17.327Z,19.35
2023-09-23T13:05:44.227Z,19.47
2023-09-23T13:08:12.289Z,19.99
2023-09-23T13:10:38.798Z,20.11
2023-09-23T13:13:05.556Z,19.92
2023-09-23T13:15:32.057Z,19.38
2023-09-23T13:17:58.653Z,19.52
2023-09-23T13:20:25.520Z,19.02
2023-09-23T13:22:51.916Z,17.13
2023-09-23T13:25:18.311Z,17.01
2023-09-23T13:27:45.066Z,18.13
2023-09-23T13:30:11.657Z,18.86
2023-09-23T13:32:40.712Z,18.02
2023-09-23T13:35:11.261Z,16.46
2023-09-23T13:37:38.177Z,16.17
2023-09-23T13:40:05.885Z,16.94
2023-09-23T13:42:33.150Z,16.82
2023-09-23T13:44:59.630Z,17.56
2023-09-23T13:47:27.031Z,17.95
2023-09-23T13:49:53.932Z,16.85
2023-09-23T13:52:20.422Z,16.38
2023-09-23T13:54:47.149Z,16.26
2023-09-23T13:57:13.989Z,16.47
2023-09-23T13:59:40.615Z,16.29
2023-09-23T14:02:14.006Z,16.23
2023-09-23T14:04:40.516Z,16.68
2023-09-23T14:07:06.874Z,16.31
2023-09-23T14:09:34.948Z,16.16
2023-09-23T14:12:01.770Z,15.90
2023-09-23T14:14:28.227Z,15.84
2023-09-23T14:16:55.090Z,15.44
2023-09-23T14:19:21.633Z,15.35
2023-09-23T14:21:48.592Z,15.51
2023-09-23T14:24:15.372Z,15.58
2023-09-23T14:26:41.827Z,15.83
2023-09-23T14:29:08.259Z,16.22
2023-09-23T14:31:35.020Z,16.42
2023-09-23T14:34:02.833Z,16.23
2023-09-23T14:36:29.179Z,16.21
2023-09-23T14:38:55.560Z,15.90
2023-09-23T14:41:21.948Z,15.95
2023-09-23T14:43:48.492Z,15.99
2023-09-23T14:46:15.371Z,15.83
2023-09-23T14:48:42.475Z,15.63
2023-09-23T14:51:09.012Z,15.49
2023-09-23T14:53:35.831Z,15.75
2023-09-23T14:56:02.277Z,15.73
2023-09-23T14:58:28.694Z,15.68
2023-09-23T15:00:55.394Z,15.37
2023-09-23T15:03:21.860Z,15.39
2023-09-23T15:05:48.378Z,15.24
2023-09-23T15:08:15.246Z,15.52
2023-09-23T15:10:41.813Z,15.48
2023-09-23T15:13:08.245Z,15.63
2023-09-23T15:15:35.081Z,15.72
2023-09-23T15:18:01.673Z,15.95
2023-09-23T15:20:28.788Z,16.34
2023-09-23T15:22:55.764Z,15.82
2023-09-23T15:25:22.193Z,16.12
2023-09-23T15:27:48.586Z,16.45
2023-09-23T15:30:15.538Z,16.69
2023-09-23T15:32:41.971Z,16.83
2023-09-23T15:35:09.015Z,16.67
2023-09-23T15:37:35.816Z,16.67
2023-09-23T15:40:02.219Z,16.59
2023-09-23T15:42:29.710Z,16.47
2023-09-23T15:44:56.695Z,16.49
2023-09-23T15:47:23.286Z,16.60
2023-09-23T15:49:49.724Z,16.45
2023-09-23T15:52:17.052Z,16.29
2023-09-23T15:54:43.406Z,16.13
2023-09-23T15:57:11.547Z,16.13
2023-09-23T15:59:39.040Z,15.77
2023-09-23T16:02:05.573Z,15.63
2023-09-23T16:04:32.970Z,15.63
2023-09-23T16:06:59.590Z,15.66
2023-09-23T16:09:26.063Z,15.63
2023-09-23T16:11:53.234Z,15.41
2023-09-23T16:14:19.823Z,15.39
2023-09-23T16:16:46.342Z,15.30
2023-09-23T16:19:12.796Z,15.22
2023-09-23T16:21:39.386Z,15.27
2023-09-23T16:24:07.086Z,15.21
2023-09-23T16:26:33.580Z,15.15
2023-09-23T16:29:00.109Z,15.12
2023-09-23T16:31:26.845Z,15.14
2023-09-23T16:33:55.476Z,15.13
2023-09-23T16:36:23.911Z,15.09
2023-09-23T16:38:50.600Z,14.68
2023-09-23T16:41:17.074Z,14.86
2023-09-23T16:43:43.872Z,14.28
2023-09-23T16:46:10.293Z,14.39
2023-09-23T16:48:37.022Z,14.45
2023-09-23T16:51:03.980Z,14.32
2023-09-23T16:53:30.414Z,14.16
2023-09-23T16:55:56.920Z,13.76
2023-09-23T16:58:24.306Z,13.48
2023-09-23T17:00:50.695Z,13.62
2023-09-23T17:03:17.311Z,13.71
2023-09-23T17:05:48.156Z,13.93
2023-09-23T17:08:14.632Z,14.14
2023-09-23T17:10:41.060Z,14.21
2023-09-23T17:13:07.889Z,14.26
2023-09-23T17:15:34.254Z,14.10
2023-09-23T17:18:00.979Z,13.71
2023-09-23T17:20:28.198Z,13.66
2023-09-23T17:22:54.590Z,13.75
2023-09-23T17:25:20.995Z,13.61
2023-09-23T17:27:47.894Z,13.47
2023-09-23T17:30:14.370Z,13.25
2023-09-23T17:32:40.983Z,13.11
2023-09-23T17:35:08.120Z,13.06
2023-09-23T17:37:34.609Z,13.14
2023-09-23T17:40:00.961Z,12.86
2023-09-23T17:42:27.793Z,12.71
2023-09-23T17:44:54.254Z,12.55
2023-09-23T17:47:20.868Z,12.44
2023-09-23T17:49:47.683Z,12.32
2023-09-23T17:52:14.071Z,12.37
2023-09-23T17:54:40.477Z,12.37
2023-09-23T17:57:08.945Z,12.25
2023-09-23T17:59:37.810Z,12.03
2023-09-23T18:02:04.962Z,11.79
2023-09-23T18:04:31.921Z,11.64
2023-09-23T18:06:59.724Z,11.62
2023-09-23T18:09:26.170Z,11.53
2023-09-23T18:11:54.423Z,11.42
2023-09-23T18:14:20.909Z,11.24
2023-09-23T18:16:47.490Z,11.03
2023-09-23T18:19:14.270Z,10.88
2023-09-23T18:21:42.192Z,10.74
2023-09-23T18:24:10.133Z,10.80
2023-09-23T18:26:37.316Z,10.70
2023-09-23T18:29:04.098Z,10.67
2023-09-23T18:31:33.251Z,10.65
2023-09-23T18:34:00.258Z,10.57
2023-09-23T18:36:26.834Z,10.56
2023-09-23T18:38:53.321Z,10.56
2023-09-23T18:41:20.163Z,10.44
2023-09-23T18:43:46.944Z,10.39
2023-09-23T18:46:13.571Z,10.44
2023-09-23T18:48:40.517Z,10.41
2023-09-23T18:51:07.522Z,10.40
2023-09-23T18:53:35.226Z,10.47
2023-09-23T18:56:04.557Z,10.48
2023-09-23T18:58:31.068Z,10.51
2023-09-23T19:00:57.763Z,10.63
2023-09-23T19:03:25.134Z,10.66
2023-09-23T19:05:51.805Z,10.69
2023-09-23T19:08:18.294Z,10.72
2023-09-23T19:10:45.569Z,10.75
2023-09-23T19:13:11.956Z,10.77
2023-09-23T19:15:38.379Z,10.78
2023-09-23T19:18:05.538Z,10.83
2023-09-23T19:20:32.353Z,10.80
2023-09-23T19:22:59.557Z,10.82
2023-09-23T19:25:26.388Z,10.83
2023-09-23T19:27:52.765Z,10.80
2023-09-23T19:30:19.469Z,10.87
2023-09-23T19:32:47.173Z,10.87
2023-09-23T19:35:13.967Z,10.91
2023-09-23T19:37:40.617Z,10.94
2023-09-23T19:40:08.138Z,10.82
2023-09-23T19:42:35.545Z,10.89
2023-09-23T19:45:04.657Z,10.89
2023-09-23T19:47:32.867Z,10.84
2023-09-23T19:50:00.552Z,10.76
2023-09-23T19:52:30.148Z,10.75
2023-09-23T19:54:57.168Z,10.74
2023-09-23T19:57:23.593Z,10.77
2023-09-23T19:59:50.014Z,10.93
2023-09-23T20:02:17.018Z,11.10
2023-09-23T20:04:46.064Z,11.01
2023-09-23T20:07:13.568Z,10.93
2023-09-23T20:09:41.145Z,11.03
2023-09-23T20:12:08.373Z,11.14
2023-09-23T20:14:34.822Z,11.17
2023-09-23T20:17:04.200Z,11.04
2023-09-23T20:19:30.758Z,10.96
2023-09-23T20:21:57.151Z,11.07
2023-09-23T20:24:24.466Z,11.08
2023-09-23T20:26:53.970Z,11.09
2023-09-23T20:29:21.521Z,11.09
2023-09-23T20:31:50.259Z,11.03
2023-09-23T20:34:17.981Z,11.03
2023-09-23T20:36:45.454Z,10.97
2023-09-23T20:39:12.050Z,11.06
2023-09-23T20:41:38.464Z,11.02
2023-09-23T20:44:05.669Z,10.91
2023-09-23T20:46:33.248Z,10.95
2023-09-23T20:49:00.377Z,10.84
2023-09-23T20:51:26.918Z,10.91
2023-09-23T20:53:55.974Z,10.87
2023-09-23T20:56:22.482Z,10.81
2023-09-23T20:58:48.855Z,10.84
2023-09-23T21:01:15.715Z,10.85
2023-09-23T21:03:42.749Z,10.85
2023-09-23T21:06:09.896Z,10.93
2023-09-23T21:08:36.793Z,10.97
2023-09-23T21:11:03.227Z,10.98
2023-09-23T21:13:29.677Z,10.98
2023-09-23T21:16:06.107Z,11.02
2023-09-23T21:18:32.769Z,11.06
2023-09-23T21:20:59.283Z,11.02
2023-09-23T21:23:26.295Z,10.89
2023-09-23T21:25:53.466Z,10.75
2023-09-23T21:28:20.243Z,10.73
2023-09-23T21:30:47.016Z,10.75
2023-09-23T21:33:13.629Z,10.84
2023-09-23T21:35:40.772Z,10.98
2023-09-23T21:38:08.934Z,10.80
2023-09-23T21:40:41.967Z,10.67
2023-09-23T21:43:09.422Z,10.55
2023-09-23T21:45:39.258Z,10.48
2023-09-23T21:48:10.083Z,10.38
2023-09-23T21:50:36.723Z,10.43
2023-09-23T21:53:04.282Z,10.42
2023-09-23T21:55:31.050Z,10.40
2023-09-23T21:57:57.601Z,10.42
2023-09-23T22:00:27.631Z,10.48
2023-09-23T22:03:00.475Z,10.62
2023-09-23T22:05:30.113Z,10.55
2023-09-23T22:07:58.903Z,10.56
2023-09-23T22:10:29.841Z,10.61
2023-09-23T22:12:58.026Z,10.62
2023-09-23T22:15:26.311Z,10.54
2023-09-23T22:17:54.515Z,10.48
2023-09-23T22:20:25.355Z,10.41
2023-09-23T22:22:52.574Z,10.33
2023-09-23T22:25:22.196Z,10.23
2023-09-23T22:27:51.988Z,10.15
2023-09-23T22:30:19.793Z,10.08
2023-09-23T22:32:49.497Z,9.98
2023-09-23T22:35:16.473Z,9.92
2023-09-23T22:37:43.109Z,9.81
2023-09-23T22:40:20.603Z,9.70
2023-09-23T22:42:47.876Z,9.64
2023-09-23T22:45:24.167Z,9.56
2023-09-23T22:48:03.970Z,9.53
2023-09-23T22:50:30.622Z,9.41
2023-09-23T22:52:57.657Z,9.31
2023-09-23T22:55:25.450Z,9.18
2023-09-23T22:57:52.269Z,9.07
2023-09-23T23:00:22.447Z,9.01
2023-09-23T23:02:50.334Z,8.92
2023-09-23T23:05:17.441Z,9.00
2023-09-23T23:07:48.572Z,8.95
2023-09-23T23:10:16.293Z,8.89
2023-09-23T23:12:43.829Z,8.81
2023-09-23T23:15:16.488Z,8.70
2023-09-23T23:17:44.783Z,8.62
2023-09-23T23:20:24.586Z,8.64
2023-09-23T23:22:55.745Z,8.51
2023-09-23T23:25:25.132Z,8.49
2023-09-23T23:27:51.799Z,8.42
2023-09-23T23:30:19.103Z,8.33
2023-09-23T23:32:50.757Z,8.28
2023-09-23T23:35:22.782Z,8.25
2023-09-23T23:37:49.601Z,8.27
2023-09-23T23:40:17.851Z,8.31
2023-09-23T23:42:44.861Z,8.16
2023-09-23T23:45:11.335Z,8.09
2023-09-23T23:47:40.961Z,8.05
2023-09-23T23:50:08.604Z,8.00
2023-09-23T23:52:35.186Z,8.00
2023-09-23T23:55:03.443Z,7.99
2023-09-23T23:57:29.875Z,7.97
2023-09-23T23:59:56.658Z,7.87
